Roselle Park, NJ (07204)

6:01 PM EST on December 04, 2016 (GMT -0500)
APRSWXNET | | Change Station

Elev 85 ft 40.67 °N, 74.26 °W | Updated 45 minutes ago

Mostly Cloudy
Mostly Cloudy
42 °F
Feels Like 42 °F
N
0
Wind Variable Wind from NNW
Gusts 0.0 mph

Today
High -- | Low -- °F
--% Chance of Precip.
Yesterday
High -- | Low -- °F
Precip. -- in
Pressure 30.19 in
Visibility 10.0 miles
Clouds Mostly Cloudy 20000 ft
Windchill 42 °F
Dew Point 27 °F
Humidity 54%
Rainfall in
Snow Depth Not available.
7:04 AM 4:29 PM
Waxing Crescent, 26% visible
METAR KEWR 042251Z 04005KT 10SM BKN200 06/M06 A3019 RMK AO2 SLP223 T00561056 $
Pressure 30.19 in
Visibility 10.0 miles
Clouds Mostly Cloudy 20000 ft
Windchill 42 °F
Dew Point 27 °F
Humidity 54%
Rainfall in
Snow Depth Not available.
7:04 AM 4:29 PM
Waxing Crescent, 26% visible
METAR KEWR 042251Z 04005KT 10SM BKN200 06/M06 A3019 RMK AO2 SLP223 T00561056 $

10-Day Weather Forecast

Almanac

Astronomy

Dec. 04, 2016 Rise Set
Actual Time
Civil Twilight
Nautical Twilight
Astronomical Twilight
Moon
Length of Visible Light
Length of Day
Tomorrow will be .
, % of the Moon is Illuminated

Today's Extremes

State Highs State Lows

Community

WunderPhotos

Upload Photos

1,955,695 photos uploaded!

WunderBlog® & News

Nearby

Air Quality

  Air Quality AQ Index Pollutant
Not available.

Snow Depth

Station Depth Elevation

Earthquake Activity

City Distance Mag. Time & Date
Minimum magnitude displayed is 2.5.

Coastal Water Temperatures

Place Temperature

Stations

Nearby Weather Stations

Station Location Temp. Windchill Dew Point Humidity Wind Precip. Elev Updated Type
                   

Watches & Warnings

There are currently no watches in effect.